Turkey River, Iowa
Current Conditions -  °F | °C
As of 12:35 AM on Saturday 25 Oct 2014 (Local Time) from KPDC Reporting Station
Haze Haze  
Wind Chill: 60°   Ceiling: 900
Heat Index: 60°   Visibility: 5mi
Dew Point: 57°   Wind: 3mph
Humidity: 91%   Direction: 250°WSW
Pressure: 29.92"   Gusts: NA
Location:  42.743°N, 91.1647°W
Report Text: KPDC 250535Z AUTO 25003KT 5SM BR OVC009 16/14 A2992 RMK AO2 T01550140
Loading
Personal Weather Stations






























Interactive Weather Map
Tropical Storm Tracking
New forecast layout! Learn more

10-Day Weather Forecast

Advertisements
Track Severe Weather on mobile